sensor_id;sensor_type;location;lat;lon;timestamp;temperature;humidity
62154;DHT22;48140;45.486;9.226;2023-05-02T01:05:58;13.30;99.90
62154;DHT22;48140;45.486;9.226;2023-05-02T01:08:43;13.30;99.90
62154;DHT22;48140;45.486;9.226;2023-05-02T01:11:14;13.30;99.90
62154;DHT22;48140;45.486;9.226;2023-05-02T01:13:42;13.30;99.90
62154;DHT22;48140;45.486;9.226;2023-05-02T01:16:11;13.40;99.90
62154;DHT22;48140;45.486;9.226;2023-05-02T01:18:40;13.40;99.90
62154;DHT22;48140;45.486;9.226;2023-05-02T01:21:08;13.40;99.90
62154;DHT22;48140;45.486;9.226;2023-05-02T01:23:56;13.40;99.90
62154;DHT22;48140;45.486;9.226;2023-05-02T01:29:10;13.30;99.90
62154;DHT22;48140;45.486;9.226;2023-05-02T01:31:40;13.20;99.90
62154;DHT22;48140;45.486;9.226;2023-05-02T01:34:10;13.20;99.90
62154;DHT22;48140;45.486;9.226;2023-05-02T01:36:40;13.20;99.90
62154;DHT22;48140;45.486;9.226;2023-05-02T01:39:09;13.20;99.90
62154;DHT22;48140;45.486;9.226;2023-05-02T01:41:35;13.30;99.90
62154;DHT22;48140;45.486;9.226;2023-05-02T01:44:02;13.30;99.90
62154;DHT22;48140;45.486;9.226;2023-05-02T01:46:33;13.30;99.90
62154;DHT22;48140;45.486;9.226;2023-05-02T01:49:06;13.30;99.90
62154;DHT22;48140;45.486;9.226;2023-05-02T01:51:34;13.30;99.90
62154;DHT22;48140;45.486;9.226;2023-05-02T01:54:05;13.40;99.90
62154;DHT22;48140;45.486;9.226;2023-05-02T01:56:34;13.40;99.90
62154;DHT22;48140;45.486;9.226;2023-05-02T01:59:03;13.30;99.90
62154;DHT22;48140;45.486;9.226;2023-05-02T02:01:30;13.40;99.90
62154;DHT22;48140;45.486;9.226;2023-05-02T02:03:57;13.40;99.90
62154;DHT22;48140;45.486;9.226;2023-05-02T02:06:23;13.40;99.90
62154;DHT22;48140;45.486;9.226;2023-05-02T02:08:49;13.50;99.90
62154;DHT22;48140;45.486;9.226;2023-05-02T02:11:19;13.50;99.90
62154;DHT22;48140;45.486;9.226;2023-05-02T02:13:54;13.50;99.90
62154;DHT22;48140;45.486;9.226;2023-05-02T02:16:30;13.50;99.90
62154;DHT22;48140;45.486;9.226;2023-05-02T02:18:58;13.60;99.90
62154;DHT22;48140;45.486;9.226;2023-05-02T02:21:30;13.50;99.90
62154;DHT22;48140;45.486;9.226;2023-05-02T02:24:00;13.50;99.90
62154;DHT22;48140;45.486;9.226;2023-05-02T02:26:26;13.50;99.90
62154;DHT22;48140;45.486;9.226;2023-05-02T02:28:52;13.50;99.90
62154;DHT22;48140;45.486;9.226;2023-05-02T02:31:18;13.50;99.90
62154;DHT22;48140;45.486;9.226;2023-05-02T02:33:43;13.60;99.90
62154;DHT22;48140;45.486;9.226;2023-05-02T02:36:23;13.50;99.90
62154;DHT22;48140;45.486;9.226;2023-05-02T02:41:30;13.50;99.90
62154;DHT22;48140;45.486;9.226;2023-05-02T02:49:37;13.30;99.90
62154;DHT22;48140;45.486;9.226;2023-05-02T02:52:27;13.40;99.90
62154;DHT22;48140;45.486;9.226;2023-05-02T02:55:12;13.40;99.90
62154;DHT22;48140;45.486;9.226;2023-05-02T03:00:19;13.40;99.90
62154;DHT22;48140;45.486;9.226;2023-05-02T03:02:47;13.30;99.90
62154;DHT22;48140;45.486;9.226;2023-05-02T03:05:13;13.30;99.90
62154;DHT22;48140;45.486;9.226;2023-05-02T03:07:40;13.50;99.90
62154;DHT22;48140;45.486;9.226;2023-05-02T03:10:07;13.30;99.90
62154;DHT22;48140;45.486;9.226;2023-05-02T03:12:33;13.20;99.90
62154;DHT22;48140;45.486;9.226;2023-05-02T03:15:22;13.20;99.90
62154;DHT22;48140;45.486;9.226;2023-05-02T03:17:49;13.20;99.90
62154;DHT22;48140;45.486;9.226;2023-05-02T03:20:15;13.20;99.90
62154;DHT22;48140;45.486;9.226;2023-05-02T03:22:40;13.10;99.90
62154;DHT22;48140;45.486;9.226;2023-05-02T03:25:06;13.20;99.90
62154;DHT22;48140;45.486;9.226;2023-05-02T03:27:32;13.10;99.90
62154;DHT22;48140;45.486;9.226;2023-05-02T03:29:58;13.10;99.90
62154;DHT22;48140;45.486;9.226;2023-05-02T03:32:23;13.10;99.90
62154;DHT22;48140;45.486;9.226;2023-05-02T03:34:49;13.10;99.90
62154;DHT22;48140;45.486;9.226;2023-05-02T03:37:14;13.00;99.90
62154;DHT22;48140;45.486;9.226;2023-05-02T03:39:40;13.00;99.90
62154;DHT22;48140;45.486;9.226;2023-05-02T03:42:06;13.00;99.90
62154;DHT22;48140;45.486;9.226;2023-05-02T03:44:31;13.00;99.90
62154;DHT22;48140;45.486;9.226;2023-05-02T03:46:57;13.00;99.90
62154;DHT22;48140;45.486;9.226;2023-05-02T03:49:22;13.20;99.90
62154;DHT22;48140;45.486;9.226;2023-05-02T03:51:48;12.90;99.90
62154;DHT22;48140;45.486;9.226;2023-05-02T03:54:14;12.90;99.90
62154;DHT22;48140;45.486;9.226;2023-05-02T03:56:39;12.90;99.90
62154;DHT22;48140;45.486;9.226;2023-05-02T03:59:05;12.90;99.90
62154;DHT22;48140;45.486;9.226;2023-05-02T04:01:31;12.90;99.90
62154;DHT22;48140;45.486;9.226;2023-05-02T04:03:57;12.90;99.90
62154;DHT22;48140;45.486;9.226;2023-05-02T04:06:22;13.20;99.90
62154;DHT22;48140;45.486;9.226;2023-05-02T04:08:48;12.90;99.90
62154;DHT22;48140;45.486;9.226;2023-05-02T04:11:14;12.90;99.90
62154;DHT22;48140;45.486;9.226;2023-05-02T04:13:40;13.10;99.90
62154;DHT22;48140;45.486;9.226;2023-05-02T04:16:05;12.90;99.90
62154;DHT22;48140;45.486;9.226;2023-05-02T04:18:31;12.90;99.90
62154;DHT22;48140;45.486;9.226;2023-05-02T04:20:57;12.90;99.90
62154;DHT22;48140;45.486;9.226;2023-05-02T04:23:22;12.90;99.90
62154;DHT22;48140;45.486;9.226;2023-05-02T04:25:52;13.00;99.90
62154;DHT22;48140;45.486;9.226;2023-05-02T04:28:20;12.90;99.90
62154;DHT22;48140;45.486;9.226;2023-05-02T04:30:49;13.00;99.90
62154;DHT22;48140;45.486;9.226;2023-05-02T04:33:15;13.10;99.90
62154;DHT22;48140;45.486;9.226;2023-05-02T04:35:42;13.00;99.90
62154;DHT22;48140;45.486;9.226;2023-05-02T04:38:08;13.00;99.90
62154;DHT22;48140;45.486;9.226;2023-05-02T04:40:34;13.10;99.90
62154;DHT22;48140;45.486;9.226;2023-05-02T04:43:00;13.10;99.90
62154;DHT22;48140;45.486;9.226;2023-05-02T04:45:26;13.10;99.90
62154;DHT22;48140;45.486;9.226;2023-05-02T04:47:51;13.10;99.90
62154;DHT22;48140;45.486;9.226;2023-05-02T04:50:17;13.10;99.90
62154;DHT22;48140;45.486;9.226;2023-05-02T04:52:43;13.10;99.90
62154;DHT22;48140;45.486;9.226;2023-05-02T04:57:44;13.00;99.90
62154;DHT22;48140;45.486;9.226;2023-05-02T05:00:10;13.00;99.90
62154;DHT22;48140;45.486;9.226;2023-05-02T05:02:36;13.10;99.90
62154;DHT22;48140;45.486;9.226;2023-05-02T05:05:03;13.10;99.90
62154;DHT22;48140;45.486;9.226;2023-05-02T05:07:29;13.10;99.90
62154;DHT22;48140;45.486;9.226;2023-05-02T05:09:55;13.10;99.90
62154;DHT22;48140;45.486;9.226;2023-05-02T05:12:26;13.00;99.90
62154;DHT22;48140;45.486;9.226;2023-05-02T05:14:52;13.10;99.90
62154;DHT22;48140;45.486;9.226;2023-05-02T05:17:18;13.10;99.90
62154;DHT22;48140;45.486;9.226;2023-05-02T05:19:44;13.10;99.90
62154;DHT22;48140;45.486;9.226;2023-05-02T05:22:10;14.00;99.90
62154;DHT22;48140;45.486;9.226;2023-05-02T05:24:37;13.10;99.90
62154;DHT22;48140;45.486;9.226;2023-05-02T05:27:04;13.10;99.90
62154;DHT22;48140;45.486;9.226;2023-05-02T05:40:11;13.20;99.90
62154;DHT22;48140;45.486;9.226;2023-05-02T05:42:37;13.30;99.90
62154;DHT22;48140;45.486;9.226;2023-05-02T05:45:02;13.40;99.90
62154;DHT22;48140;45.486;9.226;2023-05-02T05:47:28;13.40;99.90
62154;DHT22;48140;45.486;9.226;2023-05-02T05:49:55;13.40;99.90
62154;DHT22;48140;45.486;9.226;2023-05-02T05:52:21;13.50;99.90
62154;DHT22;48140;45.486;9.226;2023-05-02T05:54:47;13.50;99.90
62154;DHT22;48140;45.486;9.226;2023-05-02T05:57:13;13.50;99.90
62154;DHT22;48140;45.486;9.226;2023-05-02T05:59:38;13.60;99.90
62154;DHT22;48140;45.486;9.226;2023-05-02T06:02:04;13.60;99.90
62154;DHT22;48140;45.486;9.226;2023-05-02T06:04:30;13.70;99.90
62154;DHT22;48140;45.486;9.226;2023-05-02T06:06:55;13.80;99.90
62154;DHT22;48140;45.486;9.226;2023-05-02T06:09:21;13.80;99.90
62154;DHT22;48140;45.486;9.226;2023-05-02T06:11:47;13.80;99.90
62154;DHT22;48140;45.486;9.226;2023-05-02T06:14:13;13.80;99.90
62154;DHT22;48140;45.486;9.226;2023-05-02T06:16:38;13.90;99.90
62154;DHT22;48140;45.486;9.226;2023-05-02T06:19:04;13.90;99.90
62154;DHT22;48140;45.486;9.226;2023-05-02T06:21:30;13.90;99.90
62154;DHT22;48140;45.486;9.226;2023-05-02T06:23:56;13.90;99.90
62154;DHT22;48140;45.486;9.226;2023-05-02T06:26:22;13.90;99.90
62154;DHT22;48140;45.486;9.226;2023-05-02T06:28:47;14.00;99.90
62154;DHT22;48140;45.486;9.226;2023-05-02T06:31:13;14.10;99.90
62154;DHT22;48140;45.486;9.226;2023-05-02T06:33:40;14.10;99.90
62154;DHT22;48140;45.486;9.226;2023-05-02T06:36:07;14.20;99.90
62154;DHT22;48140;45.486;9.226;2023-05-02T06:38:32;14.30;99.90
62154;DHT22;48140;45.486;9.226;2023-05-02T06:40:58;14.30;99.90
62154;DHT22;48140;45.486;9.226;2023-05-02T06:43:24;14.40;99.90
62154;DHT22;48140;45.486;9.226;2023-05-02T06:45:52;14.50;99.90
62154;DHT22;48140;45.486;9.226;2023-05-02T06:48:19;14.50;99.90
62154;DHT22;48140;45.486;9.226;2023-05-02T06:50:44;14.50;99.90
62154;DHT22;48140;45.486;9.226;2023-05-02T06:53:10;14.60;99.90
62154;DHT22;48140;45.486;9.226;2023-05-02T06:55:36;14.70;99.90
62154;DHT22;48140;45.486;9.226;2023-05-02T06:58:01;14.80;99.90
62154;DHT22;48140;45.486;9.226;2023-05-02T07:00:27;14.90;99.90
62154;DHT22;48140;45.486;9.226;2023-05-02T07:02:53;15.10;99.90
62154;DHT22;48140;45.486;9.226;2023-05-02T07:05:18;15.20;99.90
62154;DHT22;48140;45.486;9.226;2023-05-02T07:07:45;15.40;99.90
62154;DHT22;48140;45.486;9.226;2023-05-02T07:10:11;15.40;99.90
62154;DHT22;48140;45.486;9.226;2023-05-02T07:12:37;15.50;99.90
62154;DHT22;48140;45.486;9.226;2023-05-02T07:15:07;15.40;99.90
62154;DHT22;48140;45.486;9.226;2023-05-02T07:17:33;15.50;99.90
62154;DHT22;48140;45.486;9.226;2023-05-02T07:19:58;15.60;99.90
62154;DHT22;48140;45.486;9.226;2023-05-02T07:22:24;15.80;99.90
62154;DHT22;48140;45.486;9.226;2023-05-02T07:25:02;15.80;99.90
62154;DHT22;48140;45.486;9.226;2023-05-02T07:27:28;15.80;99.90
62154;DHT22;48140;45.486;9.226;2023-05-02T07:29:53;15.70;99.90
62154;DHT22;48140;45.486;9.226;2023-05-02T07:32:20;15.80;99.80
62154;DHT22;48140;45.486;9.226;2023-05-02T07:34:50;15.90;99.90
62154;DHT22;48140;45.486;9.226;2023-05-02T07:37:18;15.90;99.40
62154;DHT22;48140;45.486;9.226;2023-05-02T07:39:44;15.80;99.40
62154;DHT22;48140;45.486;9.226;2023-05-02T07:42:10;15.90;99.30
62154;DHT22;48140;45.486;9.226;2023-05-02T07:44:35;15.90;99.10
62154;DHT22;48140;45.486;9.226;2023-05-02T07:47:01;16.00;99.40
62154;DHT22;48140;45.486;9.226;2023-05-02T07:49:27;16.00;98.90
62154;DHT22;48140;45.486;9.226;2023-05-02T07:51:52;16.10;99.30
62154;DHT22;48140;45.486;9.226;2023-05-02T07:54:19;16.20;98.90
62154;DHT22;48140;45.486;9.226;2023-05-02T07:56:45;16.20;98.90
62154;DHT22;48140;45.486;9.226;2023-05-02T07:59:11;16.10;98.90
62154;DHT22;48140;45.486;9.226;2023-05-02T08:01:38;16.10;98.50
62154;DHT22;48140;45.486;9.226;2023-05-02T08:04:04;16.10;97.70
62154;DHT22;48140;45.486;9.226;2023-05-02T08:06:30;16.00;97.10
62154;DHT22;48140;45.486;9.226;2023-05-02T08:08:57;16.10;97.00
62154;DHT22;48140;45.486;9.226;2023-05-02T08:11:24;16.00;97.10
62154;DHT22;48140;45.486;9.226;2023-05-02T08:13:52;16.00;97.50
62154;DHT22;48140;45.486;9.226;2023-05-02T08:16:18;16.10;97.30
62154;DHT22;48140;45.486;9.226;2023-05-02T08:18:44;16.20;97.50
62154;DHT22;48140;45.486;9.226;2023-05-02T08:21:09;16.10;96.80
62154;DHT22;48140;45.486;9.226;2023-05-02T08:23:35;16.20;97.10
62154;DHT22;48140;45.486;9.226;2023-05-02T08:26:02;16.30;97.10
62154;DHT22;48140;45.486;9.226;2023-05-02T08:28:28;16.20;96.90
62154;DHT22;48140;45.486;9.226;2023-05-02T08:30:54;16.20;96.70
62154;DHT22;48140;45.486;9.226;2023-05-02T08:33:20;16.20;96.90
62154;DHT22;48140;45.486;9.226;2023-05-02T08:35:45;16.10;96.90
62154;DHT22;48140;45.486;9.226;2023-05-02T08:38:11;16.10;97.20
62154;DHT22;48140;45.486;9.226;2023-05-02T08:40:37;16.20;96.90
62154;DHT22;48140;45.486;9.226;2023-05-02T08:43:03;16.40;96.60
62154;DHT22;48140;45.486;9.226;2023-05-02T08:45:34;16.50;96.20
62154;DHT22;48140;45.486;9.226;2023-05-02T08:48:08;16.60;95.60
62154;DHT22;48140;45.486;9.226;2023-05-02T08:50:41;16.60;95.50
62154;DHT22;48140;45.486;9.226;2023-05-02T08:53:09;16.70;95.70
62154;DHT22;48140;45.486;9.226;2023-05-02T08:55:37;16.70;95.50
62154;DHT22;48140;45.486;9.226;2023-05-02T08:58:04;16.70;96.00
62154;DHT22;48140;45.486;9.226;2023-05-02T09:00:32;16.70;95.30
62154;DHT22;48140;45.486;9.226;2023-05-02T09:05:41;16.70;95.70
62154;DHT22;48140;45.486;9.226;2023-05-02T09:08:07;16.70;95.10
62154;DHT22;48140;45.486;9.226;2023-05-02T09:10:34;16.70;94.60
62154;DHT22;48140;45.486;9.226;2023-05-02T09:13:41;16.80;93.80
62154;DHT22;48140;45.486;9.226;2023-05-02T09:16:08;16.70;93.50
62154;DHT22;48140;45.486;9.226;2023-05-02T09:21:09;16.50;93.90
62154;DHT22;48140;45.486;9.226;2023-05-02T09:23:42;16.50;94.30
62154;DHT22;48140;45.486;9.226;2023-05-02T09:26:20;16.50;94.60
62154;DHT22;48140;45.486;9.226;2023-05-02T09:28:52;16.50;94.80
62154;DHT22;48140;45.486;9.226;2023-05-02T09:31:22;16.60;94.80
62154;DHT22;48140;45.486;9.226;2023-05-02T09:33:50;16.60;95.00
62154;DHT22;48140;45.486;9.226;2023-05-02T09:36:17;16.70;94.90
62154;DHT22;48140;45.486;9.226;2023-05-02T09:38:45;16.90;95.00
62154;DHT22;48140;45.486;9.226;2023-05-02T09:41:11;17.00;94.50
62154;DHT22;48140;45.486;9.226;2023-05-02T09:43:38;17.40;93.50
62154;DHT22;48140;45.486;9.226;2023-05-02T09:46:08;17.50;93.10
62154;DHT22;48140;45.486;9.226;2023-05-02T09:48:56;17.90;92.50
62154;DHT22;48140;45.486;9.226;2023-05-02T09:51:24;18.20;91.90
62154;DHT22;48140;45.486;9.226;2023-05-02T09:53:50;18.50;91.30
62154;DHT22;48140;45.486;9.226;2023-05-02T09:56:17;18.70;90.20
62154;DHT22;48140;45.486;9.226;2023-05-02T09:58:43;18.70;89.80
62154;DHT22;48140;45.486;9.226;2023-05-02T10:01:16;19.20;88.00
62154;DHT22;48140;45.486;9.226;2023-05-02T10:03:46;20.00;85.20
62154;DHT22;48140;45.486;9.226;2023-05-02T10:06:12;20.60;81.60
62154;DHT22;48140;45.486;9.226;2023-05-02T10:08:41;21.00;79.00
62154;DHT22;48140;45.486;9.226;2023-05-02T10:11:07;20.80;78.50
62154;DHT22;48140;45.486;9.226;2023-05-02T10:13:36;20.70;78.60
62154;DHT22;48140;45.486;9.226;2023-05-02T10:16:04;20.20;78.30
62154;DHT22;48140;45.486;9.226;2023-05-02T10:19:02;20.20;79.80
62154;DHT22;48140;45.486;9.226;2023-05-02T10:21:28;20.30;78.20
62154;DHT22;48140;45.486;9.226;2023-05-02T10:23:55;20.40;79.20
62154;DHT22;48140;45.486;9.226;2023-05-02T10:26:22;20.30;78.50
62154;DHT22;48140;45.486;9.226;2023-05-02T10:28:49;20.50;77.70
62154;DHT22;48140;45.486;9.226;2023-05-02T10:31:16;20.50;76.50
62154;DHT22;48140;45.486;9.226;2023-05-02T10:33:42;20.30;75.50
62154;DHT22;48140;45.486;9.226;2023-05-02T10:36:09;20.50;76.10
62154;DHT22;48140;45.486;9.226;2023-05-02T10:38:38;20.70;75.60
62154;DHT22;48140;45.486;9.226;2023-05-02T10:41:19;20.50;73.90
62154;DHT22;48140;45.486;9.226;2023-05-02T10:43:47;20.10;73.70
62154;DHT22;48140;45.486;9.226;2023-05-02T10:46:33;19.90;75.30
62154;DHT22;48140;45.486;9.226;2023-05-02T10:49:04;20.10;73.60
62154;DHT22;48140;45.486;9.226;2023-05-02T10:51:31;20.30;71.70
62154;DHT22;48140;45.486;9.226;2023-05-02T10:54:21;20.50;72.90
62154;DHT22;48140;45.486;9.226;2023-05-02T10:59:32;20.40;71.80
62154;DHT22;48140;45.486;9.226;2023-05-02T11:01:58;20.70;67.30
62154;DHT22;48140;45.486;9.226;2023-05-02T11:04:23;20.60;67.70
62154;DHT22;48140;45.486;9.226;2023-05-02T11:11:50;20.60;66.10
62154;DHT22;48140;45.486;9.226;2023-05-02T11:19:26;20.90;67.20
62154;DHT22;48140;45.486;9.226;2023-05-02T11:21:52;21.10;66.80
62154;DHT22;48140;45.486;9.226;2023-05-02T11:24:38;20.90;65.30
62154;DHT22;48140;45.486;9.226;2023-05-02T11:35:25;20.60;66.70
62154;DHT22;48140;45.486;9.226;2023-05-02T11:37:58;20.80;65.60
62154;DHT22;48140;45.486;9.226;2023-05-02T11:40:25;21.00;66.10
62154;DHT22;48140;45.486;9.226;2023-05-02T11:42:52;21.10;65.60
62154;DHT22;48140;45.486;9.226;2023-05-02T11:45:18;21.50;63.80
62154;DHT22;48140;45.486;9.226;2023-05-02T11:47:45;21.80;63.20
62154;DHT22;48140;45.486;9.226;2023-05-02T11:50:11;22.20;62.70
62154;DHT22;48140;45.486;9.226;2023-05-02T11:52:38;22.60;60.80
62154;DHT22;48140;45.486;9.226;2023-05-02T11:55:05;22.50;59.40
62154;DHT22;48140;45.486;9.226;2023-05-02T11:57:35;22.60;58.50
62154;DHT22;48140;45.486;9.226;2023-05-02T12:00:03;23.00;58.20
62154;DHT22;48140;45.486;9.226;2023-05-02T12:02:41;23.40;58.50
62154;DHT22;48140;45.486;9.226;2023-05-02T12:05:09;23.20;55.70
62154;DHT22;48140;45.486;9.226;2023-05-02T12:07:45;23.20;57.00
62154;DHT22;48140;45.486;9.226;2023-05-02T12:10:13;23.20;57.00
62154;DHT22;48140;45.486;9.226;2023-05-02T12:12:42;23.10;56.80
62154;DHT22;48140;45.486;9.226;2023-05-02T12:15:09;23.10;57.60
62154;DHT22;48140;45.486;9.226;2023-05-02T12:17:44;23.20;57.50
62154;DHT22;48140;45.486;9.226;2023-05-02T12:20:10;23.60;56.10
62154;DHT22;48140;45.486;9.226;2023-05-02T12:22:37;24.00;55.00
62154;DHT22;48140;45.486;9.226;2023-05-02T12:25:04;23.90;54.60
62154;DHT22;48140;45.486;9.226;2023-05-02T12:27:30;24.00;53.70
62154;DHT22;48140;45.486;9.226;2023-05-02T12:29:59;23.80;54.80
62154;DHT22;48140;45.486;9.226;2023-05-02T12:32:28;24.30;52.80
62154;DHT22;48140;45.486;9.226;2023-05-02T12:34:54;24.40;52.10
62154;DHT22;48140;45.486;9.226;2023-05-02T12:37:25;24.40;53.40
62154;DHT22;48140;45.486;9.226;2023-05-02T12:39:51;23.90;51.70
62154;DHT22;48140;45.486;9.226;2023-05-02T12:42:19;24.00;52.50
62154;DHT22;48140;45.486;9.226;2023-05-02T12:44:47;24.10;54.00
62154;DHT22;48140;45.486;9.226;2023-05-02T12:47:14;23.80;54.10
62154;DHT22;48140;45.486;9.226;2023-05-02T12:52:19;23.30;57.90
62154;DHT22;48140;45.486;9.226;2023-05-02T12:54:45;23.30;59.60
62154;DHT22;48140;45.486;9.226;2023-05-02T12:57:21;23.60;57.70
62154;DHT22;48140;45.486;9.226;2023-05-02T12:59:53;23.20;59.20
62154;DHT22;48140;45.486;9.226;2023-05-02T13:02:19;23.40;58.60
62154;DHT22;48140;45.486;9.226;2023-05-02T13:04:45;22.90;59.20
62154;DHT22;48140;45.486;9.226;2023-05-02T13:07:11;22.60;59.50
62154;DHT22;48140;45.486;9.226;2023-05-02T13:09:37;22.50;62.70
62154;DHT22;48140;45.486;9.226;2023-05-02T13:12:03;23.00;60.60
62154;DHT22;48140;45.486;9.226;2023-05-02T13:14:29;23.30;59.70
62154;DHT22;48140;45.486;9.226;2023-05-02T13:16:54;23.80;56.20
62154;DHT22;48140;45.486;9.226;2023-05-02T13:19:21;24.40;54.90
62154;DHT22;48140;45.486;9.226;2023-05-02T13:21:47;24.50;53.90
62154;DHT22;48140;45.486;9.226;2023-05-02T13:24:13;24.50;54.00
62154;DHT22;48140;45.486;9.226;2023-05-02T13:26:39;25.00;53.80
62154;DHT22;48140;45.486;9.226;2023-05-02T13:29:06;24.50;54.20
62154;DHT22;48140;45.486;9.226;2023-05-02T13:31:31;23.70;56.10
62154;DHT22;48140;45.486;9.226;2023-05-02T13:33:57;23.00;59.90
62154;DHT22;48140;45.486;9.226;2023-05-02T13:41:33;22.70;61.50
62154;DHT22;48140;45.486;9.226;2023-05-02T14:09:52;24.30;50.90
62154;DHT22;48140;45.486;9.226;2023-05-02T14:12:18;23.90;52.20
62154;DHT22;48140;45.486;9.226;2023-05-02T14:14:44;23.60;53.40
62154;DHT22;48140;45.486;9.226;2023-05-02T14:17:09;23.90;53.30
62154;DHT22;48140;45.486;9.226;2023-05-02T14:19:35;23.80;52.90
62154;DHT22;48140;45.486;9.226;2023-05-02T14:22:01;23.80;54.00
62154;DHT22;48140;45.486;9.226;2023-05-02T14:24:26;23.70;55.10
62154;DHT22;48140;45.486;9.226;2023-05-02T14:26:52;23.30;57.60
62154;DHT22;48140;45.486;9.226;2023-05-02T14:29:17;23.10;60.10
62154;DHT22;48140;45.486;9.226;2023-05-02T14:31:44;22.80;61.00
62154;DHT22;48140;45.486;9.226;2023-05-02T14:34:10;22.70;62.80
62154;DHT22;48140;45.486;9.226;2023-05-02T14:36:36;22.80;61.30
62154;DHT22;48140;45.486;9.226;2023-05-02T14:39:01;23.10;61.60
62154;DHT22;48140;45.486;9.226;2023-05-02T14:41:27;23.30;59.50
62154;DHT22;48140;45.486;9.226;2023-05-02T14:43:52;23.10;60.20
62154;DHT22;48140;45.486;9.226;2023-05-02T14:46:18;22.80;63.00
62154;DHT22;48140;45.486;9.226;2023-05-02T14:48:43;23.10;62.00
62154;DHT22;48140;45.486;9.226;2023-05-02T14:51:09;23.70;60.50
62154;DHT22;48140;45.486;9.226;2023-05-02T14:53:35;24.40;55.80
62154;DHT22;48140;45.486;9.226;2023-05-02T14:56:01;25.00;53.50
62154;DHT22;48140;45.486;9.226;2023-05-02T14:58:27;25.00;53.40
62154;DHT22;48140;45.486;9.226;2023-05-02T15:00:53;25.20;53.70
62154;DHT22;48140;45.486;9.226;2023-05-02T15:03:18;25.20;52.90
62154;DHT22;48140;45.486;9.226;2023-05-02T15:05:44;25.50;51.70
62154;DHT22;48140;45.486;9.226;2023-05-02T15:08:10;25.30;52.00
62154;DHT22;48140;45.486;9.226;2023-05-02T15:10:38;25.40;51.50
62154;DHT22;48140;45.486;9.226;2023-05-02T15:13:04;25.20;52.20
62154;DHT22;48140;45.486;9.226;2023-05-02T15:15:33;24.90;52.90
62154;DHT22;48140;45.486;9.226;2023-05-02T15:17:58;24.50;54.00
62154;DHT22;48140;45.486;9.226;2023-05-02T15:20:24;24.00;55.20
62154;DHT22;48140;45.486;9.226;2023-05-02T15:22:50;23.30;59.30
62154;DHT22;48140;45.486;9.226;2023-05-02T15:25:16;23.00;61.90
62154;DHT22;48140;45.486;9.226;2023-05-02T15:27:41;22.80;62.30
62154;DHT22;48140;45.486;9.226;2023-05-02T15:30:07;23.00;62.50
62154;DHT22;48140;45.486;9.226;2023-05-02T15:32:33;23.10;61.10
62154;DHT22;48140;45.486;9.226;2023-05-02T15:34:59;22.90;60.50
62154;DHT22;48140;45.486;9.226;2023-05-02T15:37:24;22.40;62.70
62154;DHT22;48140;45.486;9.226;2023-05-02T15:39:50;22.20;65.10
62154;DHT22;48140;45.486;9.226;2023-05-02T15:42:16;21.60;68.80
62154;DHT22;48140;45.486;9.226;2023-05-02T15:44:41;21.50;71.50
62154;DHT22;48140;45.486;9.226;2023-05-02T15:47:07;21.40;75.30
62154;DHT22;48140;45.486;9.226;2023-05-02T15:49:33;21.50;75.10
62154;DHT22;48140;45.486;9.226;2023-05-02T15:51:59;21.80;75.30
62154;DHT22;48140;45.486;9.226;2023-05-02T15:54:25;22.40;72.10
62154;DHT22;48140;45.486;9.226;2023-05-02T15:56:51;23.00;67.40
62154;DHT22;48140;45.486;9.226;2023-05-02T15:59:16;23.20;65.50
62154;DHT22;48140;45.486;9.226;2023-05-02T16:01:43;23.00;65.60
62154;DHT22;48140;45.486;9.226;2023-05-02T16:04:08;22.90;67.10
62154;DHT22;48140;45.486;9.226;2023-05-02T16:06:35;22.30;68.50
62154;DHT22;48140;45.486;9.226;2023-05-02T16:09:01;21.80;71.50
62154;DHT22;48140;45.486;9.226;2023-05-02T16:11:27;21.60;72.80
62154;DHT22;48140;45.486;9.226;2023-05-02T16:13:52;21.60;72.80
62154;DHT22;48140;45.486;9.226;2023-05-02T16:16:18;21.60;72.20
62154;DHT22;48140;45.486;9.226;2023-05-02T16:18:44;21.60;71.80
62154;DHT22;48140;45.486;9.226;2023-05-02T16:21:10;21.50;71.90
62154;DHT22;48140;45.486;9.226;2023-05-02T16:23:36;21.40;73.20
62154;DHT22;48140;45.486;9.226;2023-05-02T16:26:01;21.40;73.40
62154;DHT22;48140;45.486;9.226;2023-05-02T16:28:28;21.20;74.10
62154;DHT22;48140;45.486;9.226;2023-05-02T16:30:53;21.20;74.90
62154;DHT22;48140;45.486;9.226;2023-05-02T16:33:20;21.20;73.70
62154;DHT22;48140;45.486;9.226;2023-05-02T16:35:46;21.20;73.90
62154;DHT22;48140;45.486;9.226;2023-05-02T16:38:12;21.20;74.60
62154;DHT22;48140;45.486;9.226;2023-05-02T16:40:38;21.10;74.00
62154;DHT22;48140;45.486;9.226;2023-05-02T16:43:04;21.00;72.90
62154;DHT22;48140;45.486;9.226;2023-05-02T16:45:30;21.00;73.60
62154;DHT22;48140;45.486;9.226;2023-05-02T16:47:55;21.00;73.30
62154;DHT22;48140;45.486;9.226;2023-05-02T16:50:22;20.80;75.00
62154;DHT22;48140;45.486;9.226;2023-05-02T16:52:47;20.90;74.70
62154;DHT22;48140;45.486;9.226;2023-05-02T16:55:13;20.80;75.10
62154;DHT22;48140;45.486;9.226;2023-05-02T16:57:39;20.70;75.90
62154;DHT22;48140;45.486;9.226;2023-05-02T17:00:06;20.70;75.50
62154;DHT22;48140;45.486;9.226;2023-05-02T17:02:34;20.60;76.00
62154;DHT22;48140;45.486;9.226;2023-05-02T17:05:00;20.60;76.30
62154;DHT22;48140;45.486;9.226;2023-05-02T17:07:26;20.50;76.00
62154;DHT22;48140;45.486;9.226;2023-05-02T17:09:51;20.50;76.00
62154;DHT22;48140;45.486;9.226;2023-05-02T17:12:17;20.50;76.30
62154;DHT22;48140;45.486;9.226;2023-05-02T17:14:47;20.30;76.80
62154;DHT22;48140;45.486;9.226;2023-05-02T17:17:13;20.20;77.90
62154;DHT22;48140;45.486;9.226;2023-05-02T17:19:38;20.10;78.40
62154;DHT22;48140;45.486;9.226;2023-05-02T17:22:04;20.10;79.00
62154;DHT22;48140;45.486;9.226;2023-05-02T17:24:31;20.10;79.20
62154;DHT22;48140;45.486;9.226;2023-05-02T17:26:57;19.90;80.20
62154;DHT22;48140;45.486;9.226;2023-05-02T17:29:23;19.80;81.10
62154;DHT22;48140;45.486;9.226;2023-05-02T17:31:49;19.70;81.00
62154;DHT22;48140;45.486;9.226;2023-05-02T17:34:15;19.70;82.10
62154;DHT22;48140;45.486;9.226;2023-05-02T17:36:41;19.70;81.40
62154;DHT22;48140;45.486;9.226;2023-05-02T17:39:08;19.60;81.90
62154;DHT22;48140;45.486;9.226;2023-05-02T17:41:35;19.60;83.20
62154;DHT22;48140;45.486;9.226;2023-05-02T17:44:01;19.50;84.20
62154;DHT22;48140;45.486;9.226;2023-05-02T17:46:27;19.50;84.50
62154;DHT22;48140;45.486;9.226;2023-05-02T17:48:53;19.50;85.40
62154;DHT22;48140;45.486;9.226;2023-05-02T17:51:21;19.40;86.80
62154;DHT22;48140;45.486;9.226;2023-05-02T17:53:48;19.30;87.00
62154;DHT22;48140;45.486;9.226;2023-05-02T17:56:14;19.20;88.10
62154;DHT22;48140;45.486;9.226;2023-05-02T17:58:43;19.20;88.70
62154;DHT22;48140;45.486;9.226;2023-05-02T18:01:10;19.00;90.00
62154;DHT22;48140;45.486;9.226;2023-05-02T18:03:36;18.90;91.10